sensor_id;sensor_type;location;lat;lon;timestamp;temperature;humidity
46932;DHT22;32670;51.464;11.964;2023-04-24T00:00:28;23.30;57.80
46932;DHT22;32670;51.464;11.964;2023-04-24T00:02:53;23.20;58.00
46932;DHT22;32670;51.464;11.964;2023-04-24T00:05:22;23.30;58.20
46932;DHT22;32670;51.464;11.964;2023-04-24T00:07:47;23.30;58.30
46932;DHT22;32670;51.464;11.964;2023-04-24T00:10:13;23.30;58.20
46932;DHT22;32670;51.464;11.964;2023-04-24T00:12:38;23.30;58.30
46932;DHT22;32670;51.464;11.964;2023-04-24T00:15:05;23.30;58.40
46932;DHT22;32670;51.464;11.964;2023-04-24T00:17:31;23.30;58.40
46932;DHT22;32670;51.464;11.964;2023-04-24T00:19:56;23.30;58.50
46932;DHT22;32670;51.464;11.964;2023-04-24T00:22:27;23.30;58.50
46932;DHT22;32670;51.464;11.964;2023-04-24T00:24:55;23.30;58.60
46932;DHT22;32670;51.464;11.964;2023-04-24T00:27:21;23.30;58.70
46932;DHT22;32670;51.464;11.964;2023-04-24T00:29:47;23.30;58.70
46932;DHT22;32670;51.464;11.964;2023-04-24T00:32:12;23.30;58.70
46932;DHT22;32670;51.464;11.964;2023-04-24T00:34:38;23.30;58.80
46932;DHT22;32670;51.464;11.964;2023-04-24T00:37:03;23.30;58.80
46932;DHT22;32670;51.464;11.964;2023-04-24T00:39:29;23.30;58.70
46932;DHT22;32670;51.464;11.964;2023-04-24T00:41:54;23.40;58.90
46932;DHT22;32670;51.464;11.964;2023-04-24T00:44:20;23.40;58.90
46932;DHT22;32670;51.464;11.964;2023-04-24T00:46:46;23.30;58.80
46932;DHT22;32670;51.464;11.964;2023-04-24T00:49:13;23.30;58.70
46932;DHT22;32670;51.464;11.964;2023-04-24T00:51:39;23.40;59.00
46932;DHT22;32670;51.464;11.964;2023-04-24T00:54:06;23.40;59.20
46932;DHT22;32670;51.464;11.964;2023-04-24T00:56:31;23.40;59.30
46932;DHT22;32670;51.464;11.964;2023-04-24T00:58:57;23.40;59.30
46932;DHT22;32670;51.464;11.964;2023-04-24T01:01:23;23.40;59.10
46932;DHT22;32670;51.464;11.964;2023-04-24T01:03:50;23.40;59.00
46932;DHT22;32670;51.464;11.964;2023-04-24T01:06:16;23.40;59.10
46932;DHT22;32670;51.464;11.964;2023-04-24T01:08:43;23.40;59.10
46932;DHT22;32670;51.464;11.964;2023-04-24T01:11:10;23.40;59.10
46932;DHT22;32670;51.464;11.964;2023-04-24T01:13:36;23.40;59.20
46932;DHT22;32670;51.464;11.964;2023-04-24T01:16:01;23.40;59.20
46932;DHT22;32670;51.464;11.964;2023-04-24T01:18:27;23.50;59.20
46932;DHT22;32670;51.464;11.964;2023-04-24T01:21:04;23.40;59.30
46932;DHT22;32670;51.464;11.964;2023-04-24T01:23:29;23.40;59.30
46932;DHT22;32670;51.464;11.964;2023-04-24T01:25:55;23.40;59.30
46932;DHT22;32670;51.464;11.964;2023-04-24T01:28:21;23.50;59.40
46932;DHT22;32670;51.464;11.964;2023-04-24T01:30:47;23.50;59.30
46932;DHT22;32670;51.464;11.964;2023-04-24T01:33:12;23.40;59.30
46932;DHT22;32670;51.464;11.964;2023-04-24T01:35:38;23.40;59.40
46932;DHT22;32670;51.464;11.964;2023-04-24T01:38:04;23.40;59.40
46932;DHT22;32670;51.464;11.964;2023-04-24T01:40:31;23.50;59.70
46932;DHT22;32670;51.464;11.964;2023-04-24T01:42:57;23.50;59.70
46932;DHT22;32670;51.464;11.964;2023-04-24T01:45:23;23.50;59.60
46932;DHT22;32670;51.464;11.964;2023-04-24T01:47:49;23.50;59.80
46932;DHT22;32670;51.464;11.964;2023-04-24T01:50:15;23.50;59.90
46932;DHT22;32670;51.464;11.964;2023-04-24T01:52:41;23.50;59.90
46932;DHT22;32670;51.464;11.964;2023-04-24T01:55:07;23.50;59.80
46932;DHT22;32670;51.464;11.964;2023-04-24T01:57:33;23.50;59.80
46932;DHT22;32670;51.464;11.964;2023-04-24T01:59:59;23.50;59.90
46932;DHT22;32670;51.464;11.964;2023-04-24T02:02:24;23.50;59.90
46932;DHT22;32670;51.464;11.964;2023-04-24T02:04:53;23.50;60.00
46932;DHT22;32670;51.464;11.964;2023-04-24T02:07:18;23.50;60.00
46932;DHT22;32670;51.464;11.964;2023-04-24T02:09:44;23.50;60.10
46932;DHT22;32670;51.464;11.964;2023-04-24T02:12:09;23.50;60.00
46932;DHT22;32670;51.464;11.964;2023-04-24T02:14:35;23.50;60.10
46932;DHT22;32670;51.464;11.964;2023-04-24T02:17:00;23.60;60.10
46932;DHT22;32670;51.464;11.964;2023-04-24T02:19:26;23.50;60.10
46932;DHT22;32670;51.464;11.964;2023-04-24T02:21:51;23.50;60.10
46932;DHT22;32670;51.464;11.964;2023-04-24T02:24:17;23.60;60.20
46932;DHT22;32670;51.464;11.964;2023-04-24T02:26:42;23.50;60.80
46932;DHT22;32670;51.464;11.964;2023-04-24T02:29:08;23.50;60.30
46932;DHT22;32670;51.464;11.964;2023-04-24T02:31:33;23.50;60.20
46932;DHT22;32670;51.464;11.964;2023-04-24T02:33:59;23.50;60.20
46932;DHT22;32670;51.464;11.964;2023-04-24T02:36:24;23.50;60.20
46932;DHT22;32670;51.464;11.964;2023-04-24T02:38:50;23.50;60.20
46932;DHT22;32670;51.464;11.964;2023-04-24T02:41:15;23.50;60.10
46932;DHT22;32670;51.464;11.964;2023-04-24T02:43:41;23.50;60.20
46932;DHT22;32670;51.464;11.964;2023-04-24T02:46:06;23.50;60.10
46932;DHT22;32670;51.464;11.964;2023-04-24T02:48:32;23.50;60.20
46932;DHT22;32670;51.464;11.964;2023-04-24T02:50:57;23.50;60.30
46932;DHT22;32670;51.464;11.964;2023-04-24T02:53:23;23.50;60.30
46932;DHT22;32670;51.464;11.964;2023-04-24T02:55:48;23.50;60.30
46932;DHT22;32670;51.464;11.964;2023-04-24T02:58:14;23.50;60.30
46932;DHT22;32670;51.464;11.964;2023-04-24T03:00:40;23.50;60.30
46932;DHT22;32670;51.464;11.964;2023-04-24T03:03:06;23.50;60.40
46932;DHT22;32670;51.464;11.964;2023-04-24T03:05:32;23.50;60.40
46932;DHT22;32670;51.464;11.964;2023-04-24T03:07:57;23.50;60.50
46932;DHT22;32670;51.464;11.964;2023-04-24T03:10:23;23.50;60.60
46932;DHT22;32670;51.464;11.964;2023-04-24T03:12:49;23.50;60.60
46932;DHT22;32670;51.464;11.964;2023-04-24T03:15:14;23.50;60.70
46932;DHT22;32670;51.464;11.964;2023-04-24T03:17:40;23.50;60.50
46932;DHT22;32670;51.464;11.964;2023-04-24T03:20:06;23.50;60.60
46932;DHT22;32670;51.464;11.964;2023-04-24T03:22:33;23.60;60.70
46932;DHT22;32670;51.464;11.964;2023-04-24T03:25:00;23.50;60.50
46932;DHT22;32670;51.464;11.964;2023-04-24T03:27:25;23.50;60.60
46932;DHT22;32670;51.464;11.964;2023-04-24T03:29:51;23.60;60.70
46932;DHT22;32670;51.464;11.964;2023-04-24T03:32:20;23.50;60.60
46932;DHT22;32670;51.464;11.964;2023-04-24T03:34:46;23.50;60.50
46932;DHT22;32670;51.464;11.964;2023-04-24T03:37:11;23.50;60.60
46932;DHT22;32670;51.464;11.964;2023-04-24T03:39:37;23.50;60.50
46932;DHT22;32670;51.464;11.964;2023-04-24T03:42:02;23.50;60.50
46932;DHT22;32670;51.464;11.964;2023-04-24T03:44:28;23.50;60.50
46932;DHT22;32670;51.464;11.964;2023-04-24T03:46:53;23.50;60.50
46932;DHT22;32670;51.464;11.964;2023-04-24T03:49:19;23.50;60.60
46932;DHT22;32670;51.464;11.964;2023-04-24T03:51:44;23.50;60.60
46932;DHT22;32670;51.464;11.964;2023-04-24T03:54:10;23.50;60.70
46932;DHT22;32670;51.464;11.964;2023-04-24T03:56:35;23.50;60.80
46932;DHT22;32670;51.464;11.964;2023-04-24T03:59:01;23.50;60.80
46932;DHT22;32670;51.464;11.964;2023-04-24T04:01:27;23.50;60.70
46932;DHT22;32670;51.464;11.964;2023-04-24T04:03:53;23.50;60.70
46932;DHT22;32670;51.464;11.964;2023-04-24T04:06:19;23.50;60.70
46932;DHT22;32670;51.464;11.964;2023-04-24T04:08:44;23.50;60.80
46932;DHT22;32670;51.464;11.964;2023-04-24T04:11:10;23.50;60.80
46932;DHT22;32670;51.464;11.964;2023-04-24T04:13:35;23.50;60.90
46932;DHT22;32670;51.464;11.964;2023-04-24T04:16:01;23.50;61.00
46932;DHT22;32670;51.464;11.964;2023-04-24T04:18:26;23.50;60.90
46932;DHT22;32670;51.464;11.964;2023-04-24T04:20:52;23.50;61.10
46932;DHT22;32670;51.464;11.964;2023-04-24T04:23:17;23.60;61.00
46932;DHT22;32670;51.464;11.964;2023-04-24T04:25:43;23.50;61.10
46932;DHT22;32670;51.464;11.964;2023-04-24T04:28:08;23.50;61.00
46932;DHT22;32670;51.464;11.964;2023-04-24T04:30:34;23.60;60.90
46932;DHT22;32670;51.464;11.964;2023-04-24T04:32:59;23.60;60.90
46932;DHT22;32670;51.464;11.964;2023-04-24T04:35:25;23.60;61.10
46932;DHT22;32670;51.464;11.964;2023-04-24T04:37:51;23.60;61.10
46932;DHT22;32670;51.464;11.964;2023-04-24T04:40:16;23.60;61.00
46932;DHT22;32670;51.464;11.964;2023-04-24T04:42:42;23.60;60.80
46932;DHT22;32670;51.464;11.964;2023-04-24T04:45:11;23.60;60.90
46932;DHT22;32670;51.464;11.964;2023-04-24T04:47:37;23.60;61.10
46932;DHT22;32670;51.464;11.964;2023-04-24T04:50:03;23.60;61.00
46932;DHT22;32670;51.464;11.964;2023-04-24T04:52:29;23.60;61.40
46932;DHT22;32670;51.464;11.964;2023-04-24T04:54:55;23.60;60.60
46932;DHT22;32670;51.464;11.964;2023-04-24T04:57:20;23.60;60.70
46932;DHT22;32670;51.464;11.964;2023-04-24T04:59:46;23.60;60.70
46932;DHT22;32670;51.464;11.964;2023-04-24T05:02:12;23.60;60.70
46932;DHT22;32670;51.464;11.964;2023-04-24T05:04:37;23.60;60.70
46932;DHT22;32670;51.464;11.964;2023-04-24T05:07:03;23.60;60.70
46932;DHT22;32670;51.464;11.964;2023-04-24T05:09:29;23.60;60.80
46932;DHT22;32670;51.464;11.964;2023-04-24T05:11:55;23.60;61.30
46932;DHT22;32670;51.464;11.964;2023-04-24T05:14:21;23.60;60.60
46932;DHT22;32670;51.464;11.964;2023-04-24T05:16:47;23.60;60.60
46932;DHT22;32670;51.464;11.964;2023-04-24T05:19:12;23.70;60.70
46932;DHT22;32670;51.464;11.964;2023-04-24T05:21:39;23.70;61.00
46932;DHT22;32670;51.464;11.964;2023-04-24T05:24:05;23.60;60.90
46932;DHT22;32670;51.464;11.964;2023-04-24T05:26:31;23.70;60.90
46932;DHT22;32670;51.464;11.964;2023-04-24T05:28:56;23.70;60.30
46932;DHT22;32670;51.464;11.964;2023-04-24T05:31:22;23.60;55.20
46932;DHT22;32670;51.464;11.964;2023-04-24T05:33:47;23.40;51.20
46932;DHT22;32670;51.464;11.964;2023-04-24T05:36:12;23.10;50.30
46932;DHT22;32670;51.464;11.964;2023-04-24T05:38:38;22.90;49.90
46932;DHT22;32670;51.464;11.964;2023-04-24T05:41:04;22.80;49.20
46932;DHT22;32670;51.464;11.964;2023-04-24T05:43:29;22.60;48.50
46932;DHT22;32670;51.464;11.964;2023-04-24T05:45:54;22.50;47.80
46932;DHT22;32670;51.464;11.964;2023-04-24T05:48:20;22.50;48.10
46932;DHT22;32670;51.464;11.964;2023-04-24T05:50:47;22.40;47.30
46932;DHT22;32670;51.464;11.964;2023-04-24T05:53:13;22.30;46.90
46932;DHT22;32670;51.464;11.964;2023-04-24T05:55:38;22.20;47.10
46932;DHT22;32670;51.464;11.964;2023-04-24T05:58:04;22.10;47.00
46932;DHT22;32670;51.464;11.964;2023-04-24T06:00:30;22.00;47.10
46932;DHT22;32670;51.464;11.964;2023-04-24T06:02:56;22.00;47.40
46932;DHT22;32670;51.464;11.964;2023-04-24T06:05:21;21.90;47.40
46932;DHT22;32670;51.464;11.964;2023-04-24T06:07:47;21.90;47.20
46932;DHT22;32670;51.464;11.964;2023-04-24T06:10:13;21.90;47.30
46932;DHT22;32670;51.464;11.964;2023-04-24T06:12:39;21.90;47.50
46932;DHT22;32670;51.464;11.964;2023-04-24T06:15:05;21.80;47.50
46932;DHT22;32670;51.464;11.964;2023-04-24T06:17:31;21.80;47.50
46932;DHT22;32670;51.464;11.964;2023-04-24T06:19:57;21.80;47.60
46932;DHT22;32670;51.464;11.964;2023-04-24T06:22:22;21.70;47.60
46932;DHT22;32670;51.464;11.964;2023-04-24T06:24:48;21.70;47.70
46932;DHT22;32670;51.464;11.964;2023-04-24T06:27:14;21.70;47.60
46932;DHT22;32670;51.464;11.964;2023-04-24T06:29:39;21.70;47.50
46932;DHT22;32670;51.464;11.964;2023-04-24T06:32:05;21.60;47.50
46932;DHT22;32670;51.464;11.964;2023-04-24T06:34:30;21.60;47.50
46932;DHT22;32670;51.464;11.964;2023-04-24T06:36:57;21.60;48.40
46932;DHT22;32670;51.464;11.964;2023-04-24T06:39:23;21.60;48.10
46932;DHT22;32670;51.464;11.964;2023-04-24T06:41:48;21.70;48.70
46932;DHT22;32670;51.464;11.964;2023-04-24T06:44:14;21.80;49.00
46932;DHT22;32670;51.464;11.964;2023-04-24T06:46:41;21.90;49.20
46932;DHT22;32670;51.464;11.964;2023-04-24T06:49:06;21.90;49.30
46932;DHT22;32670;51.464;11.964;2023-04-24T06:51:32;22.00;49.40
46932;DHT22;32670;51.464;11.964;2023-04-24T06:53:58;22.10;49.40
46932;DHT22;32670;51.464;11.964;2023-04-24T06:56:24;22.20;49.40
46932;DHT22;32670;51.464;11.964;2023-04-24T06:58:50;22.20;49.40
46932;DHT22;32670;51.464;11.964;2023-04-24T07:01:16;22.30;49.50
46932;DHT22;32670;51.464;11.964;2023-04-24T07:03:42;22.30;49.50
46932;DHT22;32670;51.464;11.964;2023-04-24T07:06:07;22.30;49.50
46932;DHT22;32670;51.464;11.964;2023-04-24T07:08:34;22.40;49.70
46932;DHT22;32670;51.464;11.964;2023-04-24T07:11:01;22.40;49.70
46932;DHT22;32670;51.464;11.964;2023-04-24T07:13:27;22.40;49.70
46932;DHT22;32670;51.464;11.964;2023-04-24T07:15:53;22.40;49.70
46932;DHT22;32670;51.464;11.964;2023-04-24T07:18:20;22.40;49.70
46932;DHT22;32670;51.464;11.964;2023-04-24T07:20:46;22.40;49.80
46932;DHT22;32670;51.464;11.964;2023-04-24T07:23:12;22.40;49.90
46932;DHT22;32670;51.464;11.964;2023-04-24T07:25:37;22.50;50.00
46932;DHT22;32670;51.464;11.964;2023-04-24T07:28:04;22.50;50.10
46932;DHT22;32670;51.464;11.964;2023-04-24T07:30:30;22.50;50.10
46932;DHT22;32670;51.464;11.964;2023-04-24T07:32:55;22.50;50.10
46932;DHT22;32670;51.464;11.964;2023-04-24T07:35:21;22.50;50.20
46932;DHT22;32670;51.464;11.964;2023-04-24T07:37:47;22.50;50.20
46932;DHT22;32670;51.464;11.964;2023-04-24T07:40:13;22.50;50.20
46932;DHT22;32670;51.464;11.964;2023-04-24T07:42:39;22.50;50.20
46932;DHT22;32670;51.464;11.964;2023-04-24T07:45:04;22.50;50.20
46932;DHT22;32670;51.464;11.964;2023-04-24T07:47:31;22.50;50.20
46932;DHT22;32670;51.464;11.964;2023-04-24T07:49:56;22.50;50.40
46932;DHT22;32670;51.464;11.964;2023-04-24T07:52:22;22.50;50.30
46932;DHT22;32670;51.464;11.964;2023-04-24T07:54:48;22.60;50.40
46932;DHT22;32670;51.464;11.964;2023-04-24T07:57:14;22.60;50.40
46932;DHT22;32670;51.464;11.964;2023-04-24T07:59:40;22.60;50.50
46932;DHT22;32670;51.464;11.964;2023-04-24T08:02:06;22.60;50.50
46932;DHT22;32670;51.464;11.964;2023-04-24T08:04:31;22.50;50.40
46932;DHT22;32670;51.464;11.964;2023-04-24T08:06:57;22.50;50.40
46932;DHT22;32670;51.464;11.964;2023-04-24T08:09:22;22.60;50.50
46932;DHT22;32670;51.464;11.964;2023-04-24T08:11:48;22.60;50.50
46932;DHT22;32670;51.464;11.964;2023-04-24T08:14:13;22.60;50.50
46932;DHT22;32670;51.464;11.964;2023-04-24T08:16:40;22.60;50.50
46932;DHT22;32670;51.464;11.964;2023-04-24T08:19:06;22.60;50.50
46932;DHT22;32670;51.464;11.964;2023-04-24T08:21:32;22.60;50.50
46932;DHT22;32670;51.464;11.964;2023-04-24T08:23:57;22.60;50.60
46932;DHT22;32670;51.464;11.964;2023-04-24T08:26:23;22.60;50.50
46932;DHT22;32670;51.464;11.964;2023-04-24T08:28:49;22.60;50.50
46932;DHT22;32670;51.464;11.964;2023-04-24T08:31:14;22.60;50.50
46932;DHT22;32670;51.464;11.964;2023-04-24T08:33:40;22.60;50.50
46932;DHT22;32670;51.464;11.964;2023-04-24T08:36:07;22.60;50.50
46932;DHT22;32670;51.464;11.964;2023-04-24T08:38:33;22.60;50.60
46932;DHT22;32670;51.464;11.964;2023-04-24T08:41:00;22.60;50.60
46932;DHT22;32670;51.464;11.964;2023-04-24T08:43:26;22.60;50.60
46932;DHT22;32670;51.464;11.964;2023-04-24T08:45:53;22.60;50.60
46932;DHT22;32670;51.464;11.964;2023-04-24T08:48:22;22.60;50.60
46932;DHT22;32670;51.464;11.964;2023-04-24T08:50:48;22.60;50.60
46932;DHT22;32670;51.464;11.964;2023-04-24T08:53:15;22.60;50.60
46932;DHT22;32670;51.464;11.964;2023-04-24T08:55:43;22.60;50.60
46932;DHT22;32670;51.464;11.964;2023-04-24T08:58:10;22.60;50.60
46932;DHT22;32670;51.464;11.964;2023-04-24T09:00:36;22.60;50.60
46932;DHT22;32670;51.464;11.964;2023-04-24T09:03:05;22.60;50.60
46932;DHT22;32670;51.464;11.964;2023-04-24T09:05:31;22.60;50.60
46932;DHT22;32670;51.464;11.964;2023-04-24T09:07:58;22.60;50.60
46932;DHT22;32670;51.464;11.964;2023-04-24T09:10:25;22.60;50.60
46932;DHT22;32670;51.464;11.964;2023-04-24T09:12:51;22.60;51.10
46932;DHT22;32670;51.464;11.964;2023-04-24T09:15:19;22.60;50.50
46932;DHT22;32670;51.464;11.964;2023-04-24T09:17:45;22.60;50.50
46932;DHT22;32670;51.464;11.964;2023-04-24T09:20:11;22.60;50.30
46932;DHT22;32670;51.464;11.964;2023-04-24T09:22:37;22.60;50.20
46932;DHT22;32670;51.464;11.964;2023-04-24T09:25:04;22.60;50.10
46932;DHT22;32670;51.464;11.964;2023-04-24T09:27:31;22.60;50.00
46932;DHT22;32670;51.464;11.964;2023-04-24T09:29:57;22.60;49.80
46932;DHT22;32670;51.464;11.964;2023-04-24T09:32:23;22.60;49.80
46932;DHT22;32670;51.464;11.964;2023-04-24T09:35:11;22.60;49.70
46932;DHT22;32670;51.464;11.964;2023-04-24T09:37:42;22.60;49.60
46932;DHT22;32670;51.464;11.964;2023-04-24T09:40:11;22.60;49.60
46932;DHT22;32670;51.464;11.964;2023-04-24T09:42:37;22.60;49.40
46932;DHT22;32670;51.464;11.964;2023-04-24T09:45:04;22.60;49.40
46932;DHT22;32670;51.464;11.964;2023-04-24T09:47:37;22.60;49.30
46932;DHT22;32670;51.464;11.964;2023-04-24T09:50:16;22.60;49.20
46932;DHT22;32670;51.464;11.964;2023-04-24T09:52:44;22.60;49.10
46932;DHT22;32670;51.464;11.964;2023-04-24T09:55:19;22.60;49.10
46932;DHT22;32670;51.464;11.964;2023-04-24T09:57:57;22.60;49.10
46932;DHT22;32670;51.464;11.964;2023-04-24T10:00:27;22.60;49.20
46932;DHT22;32670;51.464;11.964;2023-04-24T10:03:01;22.60;49.20
46932;DHT22;32670;51.464;11.964;2023-04-24T10:05:29;22.60;49.30
46932;DHT22;32670;51.464;11.964;2023-04-24T10:08:03;22.60;49.30
46932;DHT22;32670;51.464;11.964;2023-04-24T10:10:31;22.60;49.30
46932;DHT22;32670;51.464;11.964;2023-04-24T10:12:57;22.60;49.50
46932;DHT22;32670;51.464;11.964;2023-04-24T10:15:22;22.60;49.40
46932;DHT22;32670;51.464;11.964;2023-04-24T10:17:49;22.60;49.50
46932;DHT22;32670;51.464;11.964;2023-04-24T10:20:26;22.60;49.50
46932;DHT22;32670;51.464;11.964;2023-04-24T10:22:53;22.60;49.40
46932;DHT22;32670;51.464;11.964;2023-04-24T10:25:25;22.60;49.50
46932;DHT22;32670;51.464;11.964;2023-04-24T10:27:51;22.60;49.50
46932;DHT22;32670;51.464;11.964;2023-04-24T10:30:19;22.60;49.50
46932;DHT22;32670;51.464;11.964;2023-04-24T10:32:44;22.60;49.50
46932;DHT22;32670;51.464;11.964;2023-04-24T10:35:12;22.60;49.50
46932;DHT22;32670;51.464;11.964;2023-04-24T10:38:03;22.60;49.50
46932;DHT22;32670;51.464;11.964;2023-04-24T10:40:35;22.60;49.50
46932;DHT22;32670;51.464;11.964;2023-04-24T10:43:06;22.70;49.60
46932;DHT22;32670;51.464;11.964;2023-04-24T10:45:33;22.60;49.50
46932;DHT22;32670;51.464;11.964;2023-04-24T10:48:01;22.70;49.60
46932;DHT22;32670;51.464;11.964;2023-04-24T10:50:28;22.60;49.50
46932;DHT22;32670;51.464;11.964;2023-04-24T10:53:06;22.60;49.60
46932;DHT22;32670;51.464;11.964;2023-04-24T10:55:50;22.60;49.60
46932;DHT22;32670;51.464;11.964;2023-04-24T10:58:18;22.60;49.60
46932;DHT22;32670;51.464;11.964;2023-04-24T11:00:58;22.60;49.60
46932;DHT22;32670;51.464;11.964;2023-04-24T11:03:29;22.60;49.60
46932;DHT22;32670;51.464;11.964;2023-04-24T11:06:04;22.70;49.70
46932;DHT22;32670;51.464;11.964;2023-04-24T11:08:43;22.60;49.60
46932;DHT22;32670;51.464;11.964;2023-04-24T11:11:14;22.70;49.60
46932;DHT22;32670;51.464;11.964;2023-04-24T11:18:59;22.60;49.70
46932;DHT22;32670;51.464;11.964;2023-04-24T11:21:25;22.60;49.60
46932;DHT22;32670;51.464;11.964;2023-04-24T11:23:51;22.70;49.70
46932;DHT22;32670;51.464;11.964;2023-04-24T11:26:22;22.70;49.70
46932;DHT22;32670;51.464;11.964;2023-04-24T11:28:50;22.60;49.60
46932;DHT22;32670;51.464;11.964;2023-04-24T11:31:37;22.70;49.70
46932;DHT22;32670;51.464;11.964;2023-04-24T11:34:11;22.70;49.60
46932;DHT22;32670;51.464;11.964;2023-04-24T11:36:38;22.70;49.70
46932;DHT22;32670;51.464;11.964;2023-04-24T11:39:04;22.70;49.70
46932;DHT22;32670;51.464;11.964;2023-04-24T11:41:31;22.70;49.70
46932;DHT22;32670;51.464;11.964;2023-04-24T11:43:57;22.60;49.70
46932;DHT22;32670;51.464;11.964;2023-04-24T11:46:23;22.60;49.70
46932;DHT22;32670;51.464;11.964;2023-04-24T11:48:48;22.70;49.70
46932;DHT22;32670;51.464;11.964;2023-04-24T11:51:14;22.70;49.70
46932;DHT22;32670;51.464;11.964;2023-04-24T11:53:39;22.70;49.70
46932;DHT22;32670;51.464;11.964;2023-04-24T11:56:05;22.70;49.70
46932;DHT22;32670;51.464;11.964;2023-04-24T11:58:38;22.70;49.70
46932;DHT22;32670;51.464;11.964;2023-04-24T12:01:04;22.70;49.70
46932;DHT22;32670;51.464;11.964;2023-04-24T12:03:31;22.70;49.70
46932;DHT22;32670;51.464;11.964;2023-04-24T12:06:10;22.60;49.60
46932;DHT22;32670;51.464;11.964;2023-04-24T12:08:37;22.60;49.60
46932;DHT22;32670;51.464;11.964;2023-04-24T12:11:04;22.60;49.70
46932;DHT22;32670;51.464;11.964;2023-04-24T12:13:30;22.70;49.70
46932;DHT22;32670;51.464;11.964;2023-04-24T12:16:01;22.70;49.70
46932;DHT22;32670;51.464;11.964;2023-04-24T12:18:27;22.70;49.70
46932;DHT22;32670;51.464;11.964;2023-04-24T12:20:52;22.70;49.70
46932;DHT22;32670;51.464;11.964;2023-04-24T12:23:36;22.60;49.70
46932;DHT22;32670;51.464;11.964;2023-04-24T12:26:04;22.70;49.70
46932;DHT22;32670;51.464;11.964;2023-04-24T12:28:38;22.70;49.70
46932;DHT22;32670;51.464;11.964;2023-04-24T12:31:03;22.70;49.70
46932;DHT22;32670;51.464;11.964;2023-04-24T12:33:33;22.70;49.70
46932;DHT22;32670;51.464;11.964;2023-04-24T12:35:59;22.70;49.70
46932;DHT22;32670;51.464;11.964;2023-04-24T12:38:26;22.70;49.70
46932;DHT22;32670;51.464;11.964;2023-04-24T12:41:03;22.60;49.70
46932;DHT22;32670;51.464;11.964;2023-04-24T12:43:29;22.70;49.70
46932;DHT22;32670;51.464;11.964;2023-04-24T12:45:55;22.70;49.90
46932;DHT22;32670;51.464;11.964;2023-04-24T12:48:20;22.70;50.00
46932;DHT22;32670;51.464;11.964;2023-04-24T12:50:47;22.70;49.90
46932;DHT22;32670;51.464;11.964;2023-04-24T12:53:13;22.70;49.90
46932;DHT22;32670;51.464;11.964;2023-04-24T12:55:38;22.70;49.80
46932;DHT22;32670;51.464;11.964;2023-04-24T12:58:04;22.70;49.80
46932;DHT22;32670;51.464;11.964;2023-04-24T13:00:29;22.70;49.70
46932;DHT22;32670;51.464;11.964;2023-04-24T13:02:55;22.70;49.70
46932;DHT22;32670;51.464;11.964;2023-04-24T13:05:20;22.70;49.70
46932;DHT22;32670;51.464;11.964;2023-04-24T13:07:46;22.70;49.70
46932;DHT22;32670;51.464;11.964;2023-04-24T13:10:12;22.70;49.70
46932;DHT22;32670;51.464;11.964;2023-04-24T13:12:38;22.70;49.70
46932;DHT22;32670;51.464;11.964;2023-04-24T13:15:05;22.70;49.70
46932;DHT22;32670;51.464;11.964;2023-04-24T13:17:30;22.70;49.70
46932;DHT22;32670;51.464;11.964;2023-04-24T13:19:56;22.70;49.70
46932;DHT22;32670;51.464;11.964;2023-04-24T13:22:21;22.70;49.80
46932;DHT22;32670;51.464;11.964;2023-04-24T13:24:47;22.70;49.70
46932;DHT22;32670;51.464;11.964;2023-04-24T13:27:16;22.70;49.70
46932;DHT22;32670;51.464;11.964;2023-04-24T13:29:41;22.70;49.70
46932;DHT22;32670;51.464;11.964;2023-04-24T13:32:07;22.70;49.70
46932;DHT22;32670;51.464;11.964;2023-04-24T13:34:33;22.70;49.70
46932;DHT22;32670;51.464;11.964;2023-04-24T13:37:00;22.70;49.70
46932;DHT22;32670;51.464;11.964;2023-04-24T13:39:26;22.70;49.70
46932;DHT22;32670;51.464;11.964;2023-04-24T13:41:51;22.70;49.70
46932;DHT22;32670;51.464;11.964;2023-04-24T13:44:18;22.70;49.70
46932;DHT22;32670;51.464;11.964;2023-04-24T13:46:45;22.70;49.70
46932;DHT22;32670;51.464;11.964;2023-04-24T13:49:14;22.70;49.70
46932;DHT22;32670;51.464;11.964;2023-04-24T13:51:42;22.70;49.70
46932;DHT22;32670;51.464;11.964;2023-04-24T13:54:07;22.70;49.70
46932;DHT22;32670;51.464;11.964;2023-04-24T13:56:33;22.70;49.70
46932;DHT22;32670;51.464;11.964;2023-04-24T13:58:58;22.70;49.70
46932;DHT22;32670;51.464;11.964;2023-04-24T14:01:24;22.70;49.70
46932;DHT22;32670;51.464;11.964;2023-04-24T14:03:53;22.70;49.60
46932;DHT22;32670;51.464;11.964;2023-04-24T14:06:19;22.70;49.70
46932;DHT22;32670;51.464;11.964;2023-04-24T14:08:45;22.70;49.60
46932;DHT22;32670;51.464;11.964;2023-04-24T14:11:11;22.70;49.70
46932;DHT22;32670;51.464;11.964;2023-04-24T14:13:37;22.70;49.70
46932;DHT22;32670;51.464;11.964;2023-04-24T14:16:03;22.70;49.60
46932;DHT22;32670;51.464;11.964;2023-04-24T14:18:29;22.70;49.70
46932;DHT22;32670;51.464;11.964;2023-04-24T14:20:54;22.70;49.60
46932;DHT22;32670;51.464;11.964;2023-04-24T14:23:20;22.70;49.60
46932;DHT22;32670;51.464;11.964;2023-04-24T14:25:45;22.70;49.60
46932;DHT22;32670;51.464;11.964;2023-04-24T14:28:11;22.70;49.60
46932;DHT22;32670;51.464;11.964;2023-04-24T14:30:37;22.70;49.60
46932;DHT22;32670;51.464;11.964;2023-04-24T14:33:03;22.70;49.60
46932;DHT22;32670;51.464;11.964;2023-04-24T14:35:29;22.70;49.60
46932;DHT22;32670;51.464;11.964;2023-04-24T14:37:56;22.70;49.60
46932;DHT22;32670;51.464;11.964;2023-04-24T14:40:22;22.70;49.60
46932;DHT22;32670;51.464;11.964;2023-04-24T14:42:47;22.70;49.60
46932;DHT22;32670;51.464;11.964;2023-04-24T14:45:13;22.70;49.60
46932;DHT22;32670;51.464;11.964;2023-04-24T14:47:38;22.70;49.60
46932;DHT22;32670;51.464;11.964;2023-04-24T14:50:04;22.70;49.60
46932;DHT22;32670;51.464;11.964;2023-04-24T14:52:30;22.70;49.60
46932;DHT22;32670;51.464;11.964;2023-04-24T14:54:55;22.70;49.60
46932;DHT22;32670;51.464;11.964;2023-04-24T14:57:22;22.70;49.50
46932;DHT22;32670;51.464;11.964;2023-04-24T14:59:47;22.70;49.60
46932;DHT22;32670;51.464;11.964;2023-04-24T15:02:13;22.70;49.50
46932;DHT22;32670;51.464;11.964;2023-04-24T15:04:38;22.70;49.50
46932;DHT22;32670;51.464;11.964;2023-04-24T15:07:04;22.70;49.50
46932;DHT22;32670;51.464;11.964;2023-04-24T15:09:29;22.70;49.50
46932;DHT22;32670;51.464;11.964;2023-04-24T15:11:57;22.70;49.60
46932;DHT22;32670;51.464;11.964;2023-04-24T15:14:22;22.70;49.60
46932;DHT22;32670;51.464;11.964;2023-04-24T15:16:48;22.70;49.60